SANE/SDE METAR and TAF weather

Enter ICAO airport designator
Station Type Date Time Source
SANE METAR 2021/04/10 10:15 UTC NOAA

SANE 101015Z 18011KT 8000 -DZBR FEW003 OVC006 21/20 Q1007


Station Type Date Time Source
SANE Decoded METAR 2021/04/10 10:15 UTC NOAA

Santiago Del Estero Aero., Argentina (SANE) 27-46S 064-18W 199M
Apr 10, 2021 - 06:15 AM EDT / 2021.04.10 1015 UTC
Wind: from the S (180 degrees) at 13 MPH (11 KT):0
Visibility: 4 mile(s):0
Sky conditions: overcast
Weather: light drizzle, mist
Temperature: 69 F (21 C)
Dew Point: 68 F (20 C)
Relative Humidity: 94%
Pressure (altimeter): 29.74 in. Hg (1007 hPa)
ob: SANE 101015Z 18011KT 8000 -DZBR FEW003 OVC006 21/20 Q1007
cycle: 10

Station Type Date Time Source
SANE TAF 2021/01/25 18:30 UTC NOAA

TAF TAF SANE 251700Z 2518/2618 05005KT 9999 SCT045 TX35/2619Z TN23/2609Z
BECMG 2522/2600 05010KT 9999 SCT035 FEW040TCU
TEMPO 2606/2609 23015G25KT 8000 TS SHRA BKN030 FEW040CB

Example: see airport list